Time;durP1;ratioP1;P1;durP2;ratioP2;P2;SDS_P1;SDS_P2;PMS_P1;PMS_P2;Temp;Humidity;BMP_temperature;BMP_pressure;BME280_temperature;BME280_humidity;BME280_pressure;Samples;Min_cycle;Max_cycle;Signal;HPM_P1;HPM_P2
2024/02/03 00:01:56;;;;;;;4.10;1.90;;;10.10;99.90;;;;;;5000474;28;20044;-62
2024/02/03 00:04:22;;;;;;;1.50;1.40;;;10.10;99.90;;;;;;5007320;28;20042;-62
2024/02/03 00:06:48;;;;;;;7.18;2.40;;;10.00;99.90;;;;;;5001502;28;20042;-63
2024/02/03 00:09:14;;;;;;;4.80;1.63;;;10.00;99.90;;;;;;5000833;28;20111;-62
2024/02/03 00:11:40;;;;;;;2.72;1.75;;;10.00;99.90;;;;;;5000583;28;20401;-62
2024/02/03 00:14:05;;;;;;;11.20;2.35;;;9.90;99.90;;;;;;5002379;28;20049;-62
2024/02/03 00:16:31;;;;;;;2.63;1.63;;;10.00;99.90;;;;;;5002096;28;20044;-62
2024/02/03 00:18:57;;;;;;;2.10;1.27;;;9.90;99.90;;;;;;5002950;28;20057;-62
2024/02/03 00:21:23;;;;;;;2.63;1.52;;;9.90;99.90;;;;;;4999871;28;20058;-62
2024/02/03 00:23:50;;;;;;;11.30;3.67;;;9.90;99.90;;;;;;4996178;28;20504;-62
2024/02/03 00:26:16;;;;;;;6.32;2.25;;;9.90;99.90;;;;;;5005049;28;20570;-62
2024/02/03 00:28:41;;;;;;;16.38;2.60;;;9.90;99.90;;;;;;5003368;28;20379;-62
2024/02/03 00:31:09;;;;;;;4.85;2.63;;;9.90;99.90;;;;;;4987559;28;20049;-62
2024/02/03 00:33:34;;;;;;;6.72;2.85;;;9.90;99.90;;;;;;5001975;28;20050;-62
2024/02/03 00:36:00;;;;;;;3.78;1.52;;;9.90;99.90;;;;;;5004872;28;20061;-63
2024/02/03 00:38:26;;;;;;;6.05;1.70;;;9.90;99.90;;;;;;5009827;28;20129;-62
2024/02/03 00:40:53;;;;;;;0.90;0.90;;;9.90;99.90;;;;;;5003649;28;20089;-62
2024/02/03 00:43:20;;;;;;;1.88;1.50;;;9.90;99.90;;;;;;5004586;28;20042;-61
2024/02/03 00:45:46;;;;;;;3.60;1.60;;;9.90;99.90;;;;;;5002838;28;20081;-62
2024/02/03 00:48:12;;;;;;;6.10;2.08;;;9.90;99.90;;;;;;5004167;28;20461;-62
2024/02/03 00:50:38;;;;;;;3.17;1.45;;;9.90;99.90;;;;;;5004859;28;20118;-62
2024/02/03 00:53:04;;;;;;;11.02;2.75;;;9.90;99.90;;;;;;5005405;28;20038;-62
2024/02/03 00:55:30;;;;;;;10.73;1.80;;;9.80;99.90;;;;;;5004777;28;20441;-62
2024/02/03 00:57:55;;;;;;;4.53;1.60;;;9.90;99.90;;;;;;5005997;28;20046;-62
2024/02/03 01:00:24;;;;;;;11.63;3.28;;;9.80;99.90;;;;;;5003345;28;20099;-62
2024/02/03 01:02:50;;;;;;;1.77;1.08;;;9.80;99.90;;;;;;5001683;28;20136;-62
2024/02/03 01:05:16;;;;;;;6.57;2.47;;;9.80;99.90;;;;;;5004907;28;20346;-63
2024/02/03 01:07:41;;;;;;;2.88;1.38;;;9.80;99.90;;;;;;5002334;28;20053;-62
2024/02/03 01:10:08;;;;;;;6.50;2.35;;;9.80;99.90;;;;;;5002909;28;20174;-62
2024/02/03 01:12:33;;;;;;;3.55;1.75;;;9.80;99.90;;;;;;5003170;28;20034;-62
2024/02/03 01:14:59;;;;;;;10.88;1.52;;;9.80;99.90;;;;;;5003922;28;20206;-62
2024/02/03 01:17:26;;;;;;;7.70;1.95;;;9.80;99.90;;;;;;5002221;28;20057;-62
2024/02/03 01:19:53;;;;;;;3.55;1.63;;;9.80;99.90;;;;;;5003495;28;20483;-62
2024/02/03 01:22:22;;;;;;;3.30;2.20;;;9.80;99.90;;;;;;5003671;28;20061;-62
2024/02/03 01:24:48;;;;;;;4.93;1.77;;;9.90;99.90;;;;;;5003439;28;20046;-63
2024/02/03 01:27:14;;;;;;;9.20;3.53;;;9.90;99.90;;;;;;5004509;28;20060;-62
2024/02/03 01:29:40;;;;;;;1.95;1.27;;;9.90;99.90;;;;;;5004081;28;20099;-62
2024/02/03 01:32:06;;;;;;;12.82;3.10;;;10.00;99.90;;;;;;5003572;28;20516;-62
2024/02/03 01:34:33;;;;;;;10.25;3.67;;;10.00;99.90;;;;;;5001377;28;20107;-62
2024/02/03 01:36:58;;;;;;;3.13;1.35;;;10.00;99.90;;;;;;5002758;28;20045;-62
2024/02/03 01:39:24;;;;;;;5.78;1.70;;;10.00;99.90;;;;;;5003927;28;20064;-62
2024/02/03 01:41:50;;;;;;;1.08;1.02;;;10.10;99.90;;;;;;5004597;28;20064;-62
2024/02/03 01:44:16;;;;;;;14.45;3.42;;;10.10;99.90;;;;;;5002533;28;20426;-62
2024/02/03 01:46:42;;;;;;;9.00;2.95;;;10.10;99.90;;;;;;5002317;28;20041;-62
2024/02/03 01:49:08;;;;;;;1.85;1.08;;;10.20;99.90;;;;;;5001394;28;20050;-62
2024/02/03 01:51:34;;;;;;;2.05;1.42;;;10.20;99.90;;;;;;5003346;28;20135;-63
2024/02/03 01:54:00;;;;;;;3.40;1.10;;;10.10;99.90;;;;;;5007116;28;20060;-62
2024/02/03 01:56:27;;;;;;;3.97;1.65;;;10.10;99.90;;;;;;5003343;28;20041;-62
2024/02/03 01:58:53;;;;;;;3.05;1.27;;;10.10;99.90;;;;;;4999539;28;20084;-62
2024/02/03 02:01:19;;;;;;;3.38;1.27;;;10.10;99.90;;;;;;5003884;28;20078;-63
2024/02/03 02:03:45;;;;;;;3.88;1.38;;;10.10;99.90;;;;;;5001016;28;20061;-62
2024/02/03 02:06:11;;;;;;;2.47;1.45;;;10.20;99.90;;;;;;5003332;28;20778;-63
2024/02/03 02:08:39;;;;;;;8.18;2.50;;;10.20;99.90;;;;;;5007876;28;20161;-62
2024/02/03 02:11:06;;;;;;;5.60;1.85;;;10.10;99.90;;;;;;5001472;28;20082;-62
2024/02/03 02:13:32;;;;;;;5.47;1.95;;;10.20;99.90;;;;;;5002208;28;20117;-62
2024/02/03 02:15:58;;;;;;;9.13;1.92;;;10.20;99.90;;;;;;5000985;28;20137;-62
2024/02/03 02:18:24;;;;;;;1.75;0.80;;;10.20;99.90;;;;;;5003508;28;20100;-62
2024/02/03 02:20:51;;;;;;;2.33;1.13;;;10.20;99.90;;;;;;5002502;28;20388;-62
2024/02/03 02:23:18;;;;;;;17.33;2.53;;;10.20;99.90;;;;;;5000865;28;20065;-62
2024/02/03 02:25:44;;;;;;;6.20;0.95;;;10.20;99.90;;;;;;5003297;28;20056;-62
2024/02/03 02:28:10;;;;;;;3.83;1.27;;;10.20;99.90;;;;;;5002308;28;20088;-62
2024/02/03 02:30:35;;;;;;;2.20;0.82;;;10.20;99.90;;;;;;5002961;28;20168;-62
2024/02/03 02:33:03;;;;;;;9.38;1.50;;;10.20;99.90;;;;;;4999962;28;20072;-62
2024/02/03 02:35:28;;;;;;;1.05;0.63;;;10.20;99.90;;;;;;5001328;28;20406;-62
2024/02/03 02:37:54;;;;;;;1.73;0.90;;;10.20;99.90;;;;;;5001591;28;20049;-62
2024/02/03 02:40:20;;;;;;;5.75;2.20;;;10.20;99.90;;;;;;5002675;28;20042;-62
2024/02/03 02:42:46;;;;;;;2.47;0.80;;;10.30;99.90;;;;;;5002322;28;20045;-62
2024/02/03 02:45:11;;;;;;;5.45;1.90;;;10.20;99.90;;;;;;4984996;28;20052;-62
2024/02/03 02:47:37;;;;;;;5.40;1.45;;;10.20;99.90;;;;;;5001177;28;20483;-62
2024/02/03 02:50:03;;;;;;;1.55;1.00;;;10.30;99.90;;;;;;5000694;28;20077;-62
2024/02/03 02:52:29;;;;;;;4.50;1.45;;;10.30;99.90;;;;;;5001696;28;20108;-62
2024/02/03 02:54:56;;;;;;;9.68;2.70;;;10.30;99.90;;;;;;5002185;28;20502;-62
2024/02/03 02:57:22;;;;;;;12.68;2.58;;;10.30;99.90;;;;;;4990795;28;20041;-62
2024/02/03 02:59:48;;;;;;;8.02;2.40;;;10.30;99.90;;;;;;5002087;28;20049;-62
2024/02/03 03:02:14;;;;;;;5.43;1.10;;;10.30;99.90;;;;;;4996839;28;20257;-62
2024/02/03 03:04:40;;;;;;;5.22;1.85;;;10.30;99.90;;;;;;5002970;28;20125;-62
2024/02/03 03:07:06;;;;;;;0.98;0.82;;;10.30;99.90;;;;;;5001619;28;20046;-62
2024/02/03 03:09:31;;;;;;;8.02;2.03;;;10.30;99.90;;;;;;5001234;28;20112;-62
2024/02/03 03:11:57;;;;;;;4.03;1.70;;;10.30;99.90;;;;;;5001417;28;20030;-62
2024/02/03 03:14:23;;;;;;;2.08;1.20;;;10.30;99.90;;;;;;5002430;28;20346;-63
2024/02/03 03:16:52;;;;;;;2.17;0.98;;;10.30;99.90;;;;;;5001645;28;20542;-62
2024/02/03 03:19:18;;;;;;;12.90;3.22;;;10.40;99.90;;;;;;5002131;28;20050;-62
2024/02/03 03:21:44;;;;;;;1.33;0.75;;;10.30;99.90;;;;;;5003139;28;20107;-62
2024/02/03 03:24:10;;;;;;;1.23;0.82;;;10.30;99.90;;;;;;5007110;28;20042;-62
2024/02/03 03:26:42;;;;;;;6.15;1.80;;;10.30;99.90;;;;;;4984126;28;20053;-62
2024/02/03 03:29:08;;;;;;;1.08;0.80;;;10.20;99.90;;;;;;5001560;28;20119;-62
2024/02/03 03:31:34;;;;;;;10.50;3.20;;;10.20;99.90;;;;;;5002234;28;20037;-62
2024/02/03 03:34:00;;;;;;;1.70;0.88;;;10.20;99.90;;;;;;4998432;28;21641;-62
2024/02/03 03:36:25;;;;;;;3.50;1.38;;;10.20;99.90;;;;;;4999906;28;20053;-62
2024/02/03 03:39:00;;;;;;;2.80;1.00;;;10.20;99.90;;;;;;5000323;28;20046;-62
2024/02/03 03:41:26;;;;;;;6.15;1.33;;;10.10;99.90;;;;;;5000069;28;20052;-62
2024/02/03 03:43:52;;;;;;;2.17;1.05;;;10.10;99.90;;;;;;5001013;28;20045;-62
2024/02/03 03:46:18;;;;;;;2.78;1.20;;;10.10;99.90;;;;;;5000881;28;20515;-62
2024/02/03 03:48:44;;;;;;;3.60;1.05;;;10.10;99.90;;;;;;5000122;28;20616;-62
2024/02/03 03:51:09;;;;;;;3.63;1.27;;;10.10;99.90;;;;;;5000815;28;20046;-62
2024/02/03 03:53:35;;;;;;;4.70;1.48;;;10.10;99.90;;;;;;5001356;28;20395;-62
2024/02/03 03:56:01;;;;;;;10.50;3.63;;;10.10;99.90;;;;;;5001568;28;20050;-62
2024/02/03 03:58:27;;;;;;;19.00;2.30;;;10.10;99.90;;;;;;5002864;28;20520;-62
2024/02/03 04:00:52;;;;;;;3.80;1.17;;;10.10;99.90;;;;;;5005724;28;20033;-62
2024/02/03 04:03:18;;;;;;;4.47;1.20;;;10.10;99.90;;;;;;5012157;28;20053;-62
2024/02/03 04:05:44;;;;;;;3.83;0.80;;;10.10;99.90;;;;;;4999270;28;20103;-62
2024/02/03 04:08:10;;;;;;;2.42;1.10;;;10.10;99.90;;;;;;5009442;28;20037;-62
2024/02/03 04:10:36;;;;;;;5.75;1.40;;;10.20;99.90;;;;;;5006498;28;20045;-62
2024/02/03 04:13:02;;;;;;;7.20;1.20;;;10.10;99.90;;;;;;5003961;28;20049;-62
2024/02/03 04:15:29;;;;;;;4.60;1.33;;;10.20;99.90;;;;;;5005372;28;20570;-62
2024/02/03 04:17:57;;;;;;;5.88;1.85;;;10.20;99.90;;;;;;5004420;28;20037;-62
2024/02/03 04:20:26;;;;;;;0.52;0.52;;;10.10;99.90;;;;;;4996015;28;20492;-62
2024/02/03 04:22:52;;;;;;;5.35;1.13;;;10.20;99.90;;;;;;5005022;28;20037;-62
2024/02/03 04:25:17;;;;;;;7.13;1.55;;;10.20;99.90;;;;;;5004777;28;20510;-62
2024/02/03 04:27:43;;;;;;;5.07;2.03;;;10.10;99.90;;;;;;5004290;28;20042;-62
2024/02/03 04:30:09;;;;;;;5.43;1.50;;;10.10;99.90;;;;;;5003964;28;20100;-62
2024/02/03 04:32:35;;;;;;;7.38;2.05;;;10.10;99.90;;;;;;5004548;28;20616;-62
2024/02/03 04:35:01;;;;;;;10.13;1.73;;;10.10;99.90;;;;;;5004391;28;20062;-62
2024/02/03 04:37:27;;;;;;;1.73;0.88;;;10.20;99.90;;;;;;5005134;28;20058;-62
2024/02/03 04:39:53;;;;;;;3.92;0.60;;;10.10;99.90;;;;;;5005759;28;20049;-62
2024/02/03 04:42:19;;;;;;;1.67;0.52;;;10.20;99.90;;;;;;5004233;28;20046;-62
2024/02/03 04:44:45;;;;;;;1.45;1.23;;;10.20;99.90;;;;;;5004451;28;20638;-62
2024/02/03 04:47:10;;;;;;;5.93;1.85;;;10.20;99.90;;;;;;5002944;28;20125;-62
2024/02/03 04:49:36;;;;;;;9.45;2.35;;;10.20;99.90;;;;;;5003918;28;20041;-62
2024/02/03 04:52:02;;;;;;;5.30;0.93;;;10.30;99.90;;;;;;5004332;28;20123;-63
2024/02/03 04:54:28;;;;;;;11.20;2.63;;;10.30;99.90;;;;;;5001699;28;20231;-62
2024/02/03 04:56:54;;;;;;;3.35;1.15;;;10.30;99.90;;;;;;5004199;28;20042;-62
2024/02/03 04:59:19;;;;;;;7.60;2.65;;;10.30;99.90;;;;;;5004193;28;20042;-62
2024/02/03 05:01:45;;;;;;;11.48;2.05;;;10.30;99.90;;;;;;5004585;28;20111;-62
2024/02/03 05:04:11;;;;;;;8.68;3.35;;;10.20;99.90;;;;;;5002132;28;20061;-62
2024/02/03 05:06:36;;;;;;;8.82;2.30;;;10.20;99.90;;;;;;4986664;28;20535;-62
2024/02/03 05:09:02;;;;;;;4.78;1.48;;;10.20;99.90;;;;;;5005327;28;20133;-62
2024/02/03 05:11:28;;;;;;;4.32;1.65;;;10.20;99.90;;;;;;4981957;28;20057;-62
2024/02/03 05:13:54;;;;;;;1.08;0.85;;;10.20;99.90;;;;;;5007925;28;20045;-62
2024/02/03 05:16:20;;;;;;;3.10;1.33;;;10.10;99.90;;;;;;5003240;28;20374;-62
2024/02/03 05:18:45;;;;;;;11.70;1.95;;;10.10;99.90;;;;;;5002020;28;20045;-62
2024/02/03 05:21:11;;;;;;;2.63;1.20;;;10.00;99.90;;;;;;5007125;28;20384;-62
2024/02/03 05:23:38;;;;;;;7.50;1.27;;;10.00;99.90;;;;;;5002314;28;20042;-62
2024/02/03 05:26:04;;;;;;;2.10;0.68;;;10.00;99.90;;;;;;5003459;28;20133;-62
2024/02/03 05:28:29;;;;;;;1.13;0.77;;;9.90;99.90;;;;;;5001862;28;20054;-62
2024/02/03 05:30:55;;;;;;;1.73;0.70;;;9.80;99.90;;;;;;5003290;28;20136;-62
2024/02/03 05:33:21;;;;;;;5.55;1.75;;;9.80;99.90;;;;;;5005982;28;20396;-62
2024/02/03 05:35:47;;;;;;;4.63;1.13;;;9.90;99.90;;;;;;5010870;28;20042;-62
2024/02/03 05:38:13;;;;;;;5.00;1.17;;;9.90;99.90;;;;;;5003456;28;20081;-62
2024/02/03 05:40:38;;;;;;;6.93;1.33;;;9.90;99.90;;;;;;5002904;28;20058;-62
2024/02/03 05:43:04;;;;;;;17.92;2.78;;;9.90;99.90;;;;;;5001523;28;20057;-61
2024/02/03 05:45:30;;;;;;;7.25;1.88;;;9.90;99.90;;;;;;4991582;28;20090;-62
2024/02/03 05:47:56;;;;;;;4.93;1.00;;;9.90;99.90;;;;;;5003100;28;20041;-62
2024/02/03 05:50:21;;;;;;;3.08;0.93;;;9.90;99.90;;;;;;5002404;28;20496;-62
2024/02/03 05:52:47;;;;;;;5.68;1.42;;;9.90;99.90;;;;;;5001133;28;20129;-62
2024/02/03 05:55:13;;;;;;;7.18;1.50;;;9.90;99.90;;;;;;5007078;28;20053;-62
2024/02/03 05:57:52;;;;;;;9.65;2.08;;;9.90;99.90;;;;;;5003501;28;20061;-62
2024/02/03 06:00:19;;;;;;;6.13;1.45;;;9.90;99.90;;;;;;5002007;28;20034;-62
2024/02/03 06:02:48;;;;;;;3.05;1.08;;;10.00;99.90;;;;;;5003710;28;20041;-62
2024/02/03 06:05:15;;;;;;;0.52;0.50;;;9.90;99.90;;;;;;5002534;28;20050;-62
2024/02/03 06:07:41;;;;;;;5.07;1.42;;;10.00;99.90;;;;;;5003760;28;20453;-62
2024/02/03 06:10:08;;;;;;;8.68;1.83;;;10.00;99.90;;;;;;5001611;28;20129;-62
2024/02/03 06:12:34;;;;;;;2.25;0.98;;;10.00;99.90;;;;;;5001687;28;20072;-62
2024/02/03 06:14:59;;;;;;;4.70;1.65;;;10.00;99.90;;;;;;5002475;28;20448;-62
2024/02/03 06:17:25;;;;;;;2.70;0.95;;;9.90;99.90;;;;;;5002839;28;20046;-62
2024/02/03 06:19:52;;;;;;;1.27;0.95;;;9.90;99.90;;;;;;5003161;28;20104;-62
2024/02/03 06:22:18;;;;;;;7.20;2.88;;;9.90;99.90;;;;;;5002537;28;20058;-62
2024/02/03 06:24:43;;;;;;;23.75;3.72;;;9.90;99.90;;;;;;5012809;28;20140;-62
2024/02/03 06:27:09;;;;;;;10.05;2.88;;;9.90;99.90;;;;;;4989037;28;20042;-62
2024/02/03 06:29:35;;;;;;;6.82;1.92;;;9.90;99.90;;;;;;5000650;28;20152;-62
2024/02/03 06:32:01;;;;;;;11.82;3.95;;;9.80;99.90;;;;;;5002303;28;20113;-62
2024/02/03 06:34:28;;;;;;;3.10;1.30;;;9.80;99.90;;;;;;5005866;28;20053;-62
2024/02/03 06:36:53;;;;;;;8.60;3.20;;;9.80;99.90;;;;;;5002628;28;20396;-61
2024/02/03 06:39:19;;;;;;;5.93;1.75;;;9.80;99.90;;;;;;5001625;28;20041;-62
2024/02/03 06:41:46;;;;;;;2.97;1.23;;;9.80;99.90;;;;;;4985195;28;20385;-62
2024/02/03 06:44:12;;;;;;;3.72;1.33;;;9.80;99.90;;;;;;5002963;28;20498;-62
2024/02/03 06:46:38;;;;;;;1.30;1.20;;;9.70;99.90;;;;;;5003073;28;20938;-62
2024/02/03 06:49:04;;;;;;;7.72;1.85;;;9.70;99.90;;;;;;5000537;28;20068;-62
2024/02/03 06:51:29;;;;;;;5.53;1.85;;;9.70;99.90;;;;;;5000212;28;20137;-62
2024/02/03 06:53:55;;;;;;;5.68;1.52;;;9.60;99.90;;;;;;5001987;28;20045;-62
2024/02/03 06:56:21;;;;;;;1.45;0.90;;;9.70;99.90;;;;;;5000222;28;20482;-62
2024/02/03 06:58:47;;;;;;;6.90;1.63;;;9.60;99.90;;;;;;5002269;28;20030;-63
2024/02/03 07:01:13;;;;;;;4.82;2.00;;;9.70;99.90;;;;;;5002285;28;20107;-62
2024/02/03 07:03:39;;;;;;;7.20;2.53;;;9.70;99.90;;;;;;5002128;28;20061;-62
2024/02/03 07:06:06;;;;;;;6.18;1.30;;;9.70;99.90;;;;;;4983619;28;20050;-62
2024/02/03 07:08:31;;;;;;;3.47;2.22;;;9.70;99.90;;;;;;5000049;28;20041;-62
2024/02/03 07:11:00;;;;;;;6.43;2.13;;;9.70;99.90;;;;;;5002539;28;20156;-62
2024/02/03 07:13:27;;;;;;;7.53;1.25;;;9.70;99.90;;;;;;5001460;28;20046;-62
2024/02/03 07:15:53;;;;;;;4.70;1.98;;;9.70;99.90;;;;;;4999974;28;20089;-62
2024/02/03 07:18:19;;;;;;;6.25;1.40;;;9.80;99.90;;;;;;5001358;28;20476;-62
2024/02/03 07:20:45;;;;;;;6.25;1.75;;;9.80;99.90;;;;;;5012761;28;20053;-62
2024/02/03 07:23:11;;;;;;;3.67;1.27;;;9.70;99.90;;;;;;4984001;28;20045;-62
2024/02/03 07:25:37;;;;;;;6.20;2.33;;;9.80;99.90;;;;;;5001514;28;20515;-63
2024/02/03 07:28:03;;;;;;;2.75;1.48;;;9.80;99.90;;;;;;5001235;28;20041;-62
2024/02/03 07:30:29;;;;;;;4.85;1.23;;;9.70;99.90;;;;;;5006460;28;20053;-62
2024/02/03 07:32:55;;;;;;;3.22;1.00;;;9.80;99.90;;;;;;5002344;28;20120;-62
2024/02/03 07:35:21;;;;;;;7.22;1.75;;;9.80;99.90;;;;;;4999479;28;20136;-62
2024/02/03 07:37:47;;;;;;;7.05;2.55;;;9.80;99.90;;;;;;5002290;28;20038;-62
2024/02/03 07:40:13;;;;;;;4.78;1.80;;;9.80;99.90;;;;;;5001009;28;20121;-62
2024/02/03 07:42:40;;;;;;;11.60;1.92;;;9.90;99.90;;;;;;5002057;28;20060;-62
2024/02/03 07:45:07;;;;;;;4.10;1.88;;;9.80;99.90;;;;;;5001110;28;20140;-62
2024/02/03 07:47:33;;;;;;;9.52;2.22;;;9.80;99.90;;;;;;5001921;28;20050;-62
2024/02/03 07:49:59;;;;;;;2.38;1.13;;;9.90;99.90;;;;;;5000092;28;20555;-62
2024/02/03 07:52:25;;;;;;;3.20;1.27;;;9.90;99.90;;;;;;5000902;28;20126;-62
2024/02/03 07:54:51;;;;;;;3.25;1.10;;;9.90;99.90;;;;;;5001477;28;20124;-62
2024/02/03 07:57:17;;;;;;;7.32;1.92;;;9.90;99.90;;;;;;5001557;28;20535;-62
2024/02/03 07:59:42;;;;;;;12.60;3.60;;;10.00;99.90;;;;;;5004942;28;20069;-62
2024/02/03 08:02:08;;;;;;;3.42;1.40;;;10.00;99.90;;;;;;5001358;28;20175;-62
2024/02/03 08:04:34;;;;;;;3.45;1.17;;;10.00;99.90;;;;;;5001195;28;20050;-62
2024/02/03 08:07:00;;;;;;;3.80;1.25;;;10.00;99.90;;;;;;5000339;28;20543;-62
2024/02/03 08:09:25;;;;;;;2.60;1.42;;;10.00;99.90;;;;;;5000236;28;20077;-63
2024/02/03 08:11:51;;;;;;;2.22;0.85;;;10.00;99.90;;;;;;5001465;28;20052;-62
2024/02/03 08:14:17;;;;;;;1.17;0.77;;;10.00;99.90;;;;;;5001989;28;20057;-62
2024/02/03 08:16:42;;;;;;;2.30;1.15;;;10.00;99.90;;;;;;5001396;28;20513;-62
2024/02/03 08:19:08;;;;;;;7.88;1.98;;;10.00;99.90;;;;;;5000849;28;20065;-62
2024/02/03 08:21:36;;;;;;;7.20;2.35;;;10.00;99.90;;;;;;5000534;28;20468;-62
2024/02/03 08:24:02;;;;;;;2.63;1.20;;;10.00;99.90;;;;;;4999222;28;20526;-62
2024/02/03 08:26:28;;;;;;;2.40;1.10;;;10.00;99.90;;;;;;5004399;28;20042;-62
2024/02/03 08:28:54;;;;;;;5.57;1.52;;;10.00;99.90;;;;;;5000041;28;20116;-62
2024/02/03 08:31:20;;;;;;;14.02;2.75;;;10.00;99.90;;;;;;4998226;28;20092;-62
2024/02/03 08:33:45;;;;;;;6.20;1.98;;;10.00;99.90;;;;;;4999967;28;20046;-62
2024/02/03 08:36:11;;;;;;;5.78;1.67;;;10.00;99.90;;;;;;5001150;28;20049;-62
2024/02/03 08:38:37;;;;;;;4.88;2.05;;;10.00;99.90;;;;;;4999727;28;20121;-62
2024/02/03 08:41:03;;;;;;;3.35;1.35;;;10.00;99.90;;;;;;4992073;28;20045;-62
2024/02/03 08:43:29;;;;;;;1.02;0.80;;;10.00;99.90;;;;;;5001245;28;20143;-62
2024/02/03 08:45:55;;;;;;;3.22;0.77;;;10.10;99.90;;;;;;5002875;28;20081;-62
2024/02/03 08:48:21;;;;;;;5.82;1.80;;;10.10;99.90;;;;;;5003921;28;20180;-62
2024/02/03 08:50:47;;;;;;;7.25;2.58;;;10.10;99.90;;;;;;5003114;28;20049;-62
2024/02/03 08:53:12;;;;;;;3.85;1.20;;;10.10;99.90;;;;;;5003065;28;20041;-62
2024/02/03 08:55:38;;;;;;;6.43;1.85;;;10.10;99.90;;;;;;5005547;28;20057;-62
2024/02/03 08:58:04;;;;;;;3.97;1.00;;;10.10;99.90;;;;;;5004390;28;20038;-62
2024/02/03 09:00:30;;;;;;;4.20;0.98;;;10.10;99.90;;;;;;5005512;28;20552;-62
2024/02/03 09:02:56;;;;;;;9.40;1.70;;;10.20;99.90;;;;;;5001995;28;20594;-62
2024/02/03 09:05:22;;;;;;;4.15;1.02;;;10.30;99.90;;;;;;5002691;28;20121;-62
2024/02/03 09:07:49;;;;;;;2.30;0.93;;;10.40;99.90;;;;;;5004515;28;20125;-62
2024/02/03 09:10:15;;;;;;;10.23;2.10;;;10.30;99.90;;;;;;5006689;28;20053;-62
2024/02/03 09:12:41;;;;;;;14.98;3.28;;;10.30;99.90;;;;;;5002213;28;20485;-62
2024/02/03 09:15:06;;;;;;;10.40;1.85;;;10.30;99.90;;;;;;5002646;28;20506;-62
2024/02/03 09:17:32;;;;;;;2.00;0.60;;;10.30;99.90;;;;;;5003260;28;20069;-62
2024/02/03 09:19:58;;;;;;;9.52;1.85;;;10.30;99.90;;;;;;5003773;28;20042;-62
2024/02/03 09:22:24;;;;;;;7.75;2.03;;;10.30;99.90;;;;;;5002119;28;20061;-62
2024/02/03 09:24:50;;;;;;;10.05;2.13;;;10.40;99.90;;;;;;5005534;28;20116;-62
2024/02/03 09:27:15;;;;;;;7.25;1.55;;;10.30;99.90;;;;;;5003387;28;20429;-62
2024/02/03 09:29:41;;;;;;;10.85;0.93;;;10.40;99.90;;;;;;5005162;28;20056;-62
2024/02/03 09:32:08;;;;;;;8.73;1.55;;;10.40;99.90;;;;;;5003237;28;20522;-62
2024/02/03 09:34:34;;;;;;;6.43;1.23;;;10.40;99.90;;;;;;5001385;28;20089;-61
2024/02/03 09:37:00;;;;;;;7.50;1.35;;;10.40;99.90;;;;;;5002022;28;20560;-62
2024/02/03 09:39:26;;;;;;;16.52;3.83;;;10.40;99.90;;;;;;5000795;28;20054;-62
2024/02/03 09:41:55;;;;;;;3.88;1.35;;;10.50;99.90;;;;;;5004179;28;20169;-62
2024/02/03 09:44:21;;;;;;;6.90;1.85;;;10.40;99.90;;;;;;5002325;28;20404;-62
2024/02/03 09:46:48;;;;;;;3.90;1.05;;;10.40;99.90;;;;;;5001975;28;20124;-63
2024/02/03 09:49:14;;;;;;;7.20;0.90;;;10.50;99.90;;;;;;5004160;28;20053;-62
2024/02/03 09:51:40;;;;;;;11.45;2.08;;;10.50;99.90;;;;;;5014337;28;20384;-62
2024/02/03 09:54:07;;;;;;;5.88;1.33;;;10.50;99.90;;;;;;5002287;28;20050;-62
2024/02/03 09:56:32;;;;;;;2.15;1.27;;;10.50;99.90;;;;;;4999742;28;20136;-62
2024/02/03 09:58:58;;;;;;;11.00;1.73;;;10.50;99.90;;;;;;5004006;28;20460;-62
2024/02/03 10:01:24;;;;;;;4.55;1.15;;;10.60;99.90;;;;;;5001751;28;20656;-62
2024/02/03 10:03:56;;;;;;;10.27;1.58;;;10.50;99.90;;;;;;4989432;28;20119;-62
2024/02/03 10:06:22;;;;;;;15.85;3.63;;;10.60;99.90;;;;;;4998749;28;20061;-62
2024/02/03 10:08:53;;;;;;;6.30;1.13;;;10.60;99.90;;;;;;4999450;28;20326;-62
2024/02/03 10:11:20;;;;;;;4.75;0.98;;;10.60;99.90;;;;;;4991403;28;20539;-63
2024/02/03 10:14:07;;;;;;;0.63;0.50;;;10.60;99.90;;;;;;4998328;28;20125;-63
2024/02/03 10:16:49;;;;;;;5.10;1.20;;;10.60;99.90;;;;;;4995176;28;20057;-62
2024/02/03 10:19:15;;;;;;;13.95;2.95;;;10.60;99.90;;;;;;4997459;28;20108;-62
2024/02/03 10:21:41;;;;;;;10.75;2.33;;;10.60;99.90;;;;;;5001156;28;20124;-62
2024/02/03 10:24:08;;;;;;;16.45;3.42;;;10.60;99.90;;;;;;4985439;28;20489;-62
2024/02/03 10:26:35;;;;;;;2.58;1.08;;;10.60;99.90;;;;;;4999593;28;20046;-62
2024/02/03 10:29:01;;;;;;;5.38;1.33;;;10.70;99.90;;;;;;4985403;28;20108;-62
2024/02/03 10:31:27;;;;;;;9.30;1.20;;;10.70;99.90;;;;;;5002611;28;20034;-62
2024/02/03 10:33:56;;;;;;;9.73;2.00;;;10.70;99.90;;;;;;5008566;28;20049;-62
2024/02/03 10:36:22;;;;;;;4.55;1.25;;;10.80;99.90;;;;;;4975649;28;20077;-62
2024/02/03 10:38:48;;;;;;;10.02;2.13;;;10.80;99.90;;;;;;5002555;28;20080;-62
2024/02/03 10:41:19;;;;;;;3.17;0.88;;;10.80;99.90;;;;;;4984575;28;20054;-62
2024/02/03 10:43:47;;;;;;;18.95;3.55;;;10.80;99.90;;;;;;4997722;28;20058;-62
2024/02/03 10:46:16;;;;;;;3.50;1.08;;;10.80;99.90;;;;;;5000515;28;20111;-62
2024/02/03 10:48:47;;;;;;;2.60;0.98;;;10.80;99.90;;;;;;4999112;28;20613;-62
2024/02/03 10:51:21;;;;;;;9.95;2.33;;;10.80;99.90;;;;;;5004638;28;20159;-62
2024/02/03 10:54:05;;;;;;;13.27;2.83;;;10.80;99.90;;;;;;5001931;28;20037;-62
2024/02/03 10:56:35;;;;;;;14.13;3.60;;;10.90;99.90;;;;;;4999409;28;20100;-62
2024/02/03 10:59:05;;;;;;;8.35;2.25;;;10.80;99.90;;;;;;5002039;28;20438;-61
2024/02/03 11:01:41;;;;;;;14.48;2.45;;;10.90;99.90;;;;;;5000937;28;20115;-62
2024/02/03 11:04:07;;;;;;;16.38;2.80;;;10.90;99.90;;;;;;5002460;28;20045;-62
2024/02/03 11:06:33;;;;;;;2.28;1.27;;;10.80;99.90;;;;;;5000445;28;20508;-62
2024/02/03 11:09:13;;;;;;;13.90;2.25;;;10.80;99.90;;;;;;4998115;28;20373;-62
2024/02/03 11:11:45;;;;;;;9.00;1.45;;;10.90;99.90;;;;;;5001325;28;20060;-62
2024/02/03 11:14:15;;;;;;;10.00;2.53;;;10.80;99.90;;;;;;5001443;28;20058;-61
2024/02/03 11:16:42;;;;;;;6.90;1.33;;;10.90;99.90;;;;;;4999954;28;20050;-62
2024/02/03 11:19:10;;;;;;;7.88;1.75;;;10.90;99.90;;;;;;4999509;28;20049;-62
2024/02/03 11:21:44;;;;;;;7.65;1.38;;;11.00;99.90;;;;;;5002297;28;20116;-62
2024/02/03 11:24:10;;;;;;;18.30;3.30;;;11.00;99.90;;;;;;5002800;28;20053;-61
2024/02/03 11:26:37;;;;;;;11.48;2.35;;;11.00;99.90;;;;;;5005137;28;20686;-62
2024/02/03 11:29:04;;;;;;;10.50;2.13;;;11.10;99.90;;;;;;5008622;28;20050;-61
2024/02/03 11:31:32;;;;;;;8.57;1.92;;;11.10;99.90;;;;;;5000465;28;20050;-62
2024/02/03 11:33:58;;;;;;;9.77;2.50;;;11.20;99.90;;;;;;4975082;28;20057;-62
2024/02/03 11:36:24;;;;;;;13.65;3.08;;;11.20;99.90;;;;;;4993583;28;20381;-62
2024/02/03 11:38:52;;;;;;;9.82;2.17;;;11.30;99.90;;;;;;5000952;28;20080;-62
2024/02/03 11:41:18;;;;;;;7.22;1.23;;;11.40;99.90;;;;;;4999462;28;20056;-63
2024/02/03 11:43:45;;;;;;;17.92;3.78;;;11.40;99.90;;;;;;5000467;28;20667;-62
2024/02/03 11:46:12;;;;;;;21.00;3.53;;;11.30;99.90;;;;;;5000443;28;20052;-62
2024/02/03 11:48:39;;;;;;;9.27;1.67;;;11.40;99.90;;;;;;5006130;28;20515;-62
2024/02/03 11:51:10;;;;;;;18.52;3.80;;;11.40;99.90;;;;;;4997357;28;20049;-62
2024/02/03 11:53:37;;;;;;;15.35;3.80;;;11.40;99.90;;;;;;4997262;28;20053;-62
2024/02/03 11:56:03;;;;;;;17.48;3.85;;;11.40;99.90;;;;;;4990947;28;20046;-62
2024/02/03 11:58:29;;;;;;;5.50;1.65;;;11.40;99.90;;;;;;4994853;28;20048;-62
2024/02/03 12:01:09;;;;;;;16.33;2.85;;;11.40;99.90;;;;;;4998192;28;20073;-62
2024/02/03 12:03:38;;;;;;;14.95;3.30;;;11.50;99.90;;;;;;4998446;28;20364;-62
2024/02/03 12:06:05;;;;;;;14.35;2.90;;;11.50;99.90;;;;;;4999229;28;20044;-62
2024/02/03 12:08:32;;;;;;;6.25;1.33;;;11.50;99.90;;;;;;5002629;28;20112;-62
2024/02/03 12:10:58;;;;;;;6.82;1.60;;;11.60;99.90;;;;;;4999015;28;20396;-62
2024/02/03 12:13:24;;;;;;;13.07;3.20;;;11.60;99.90;;;;;;5000671;28;20050;-62
2024/02/03 12:15:53;;;;;;;8.85;2.47;;;11.60;99.90;;;;;;5000122;28;20050;-62
2024/02/03 12:18:19;;;;;;;15.27;3.55;;;11.60;99.90;;;;;;4985907;28;20133;-62
2024/02/03 12:20:45;;;;;;;9.63;2.53;;;11.60;99.90;;;;;;5003167;28;20056;-62
2024/02/03 12:23:11;;;;;;;14.10;2.83;;;11.60;99.90;;;;;;5004892;28;20488;-62
2024/02/03 12:25:37;;;;;;;4.05;0.88;;;11.60;99.90;;;;;;5004965;28;20141;-62
2024/02/03 12:28:05;;;;;;;17.02;3.50;;;11.70;99.90;;;;;;5004011;28;20129;-62
2024/02/03 12:30:35;;;;;;;6.88;1.67;;;11.70;99.90;;;;;;4987690;28;20097;-62
2024/02/03 12:33:02;;;;;;;12.30;2.78;;;11.60;99.90;;;;;;5003662;28;20050;-62
2024/02/03 12:35:29;;;;;;;9.45;2.67;;;11.70;99.90;;;;;;5003469;28;20139;-62
2024/02/03 12:37:55;;;;;;;13.98;3.20;;;11.60;99.90;;;;;;5006872;28;20639;-62
2024/02/03 12:40:21;;;;;;;13.75;3.33;;;11.60;99.90;;;;;;5005232;28;20260;-62
2024/02/03 12:42:47;;;;;;;13.77;2.75;;;11.70;99.90;;;;;;5002606;28;20484;-62
2024/02/03 12:45:12;;;;;;;11.18;2.25;;;11.60;99.90;;;;;;5003257;28;20152;-62